sensor_id;sensor_type;location;lat;lon;timestamp;P1;durP1;ratioP1;P2;durP2;ratioP2
29848;SDS011;16728;50.832;5.590;2023-04-24T00:00:28;8.02;;;6.07;;
29848;SDS011;16728;50.832;5.590;2023-04-24T00:03:31;6.38;;;5.32;;
29848;SDS011;16728;50.832;5.590;2023-04-24T00:06:35;9.48;;;6.05;;
29848;SDS011;16728;50.832;5.590;2023-04-24T00:09:38;9.23;;;6.53;;
29848;SDS011;16728;50.832;5.590;2023-04-24T00:12:41;8.10;;;6.70;;
29848;SDS011;16728;50.832;5.590;2023-04-24T00:15:43;10.40;;;6.53;;
29848;SDS011;16728;50.832;5.590;2023-04-24T00:18:46;9.48;;;6.90;;
29848;SDS011;16728;50.832;5.590;2023-04-24T00:21:49;9.93;;;7.55;;
29848;SDS011;16728;50.832;5.590;2023-04-24T00:24:51;10.35;;;7.50;;
29848;SDS011;16728;50.832;5.590;2023-04-24T00:27:53;14.90;;;7.60;;
29848;SDS011;16728;50.832;5.590;2023-04-24T00:30:56;11.85;;;8.18;;
29848;SDS011;16728;50.832;5.590;2023-04-24T00:33:58;11.50;;;8.85;;
29848;SDS011;16728;50.832;5.590;2023-04-24T00:37:00;13.38;;;8.65;;
29848;SDS011;16728;50.832;5.590;2023-04-24T00:40:02;18.20;;;9.45;;
29848;SDS011;16728;50.832;5.590;2023-04-24T00:43:09;13.88;;;9.38;;
29848;SDS011;16728;50.832;5.590;2023-04-24T00:46:11;12.57;;;9.25;;
29848;SDS011;16728;50.832;5.590;2023-04-24T00:49:14;17.48;;;10.52;;
29848;SDS011;16728;50.832;5.590;2023-04-24T00:52:16;14.25;;;9.45;;
29848;SDS011;16728;50.832;5.590;2023-04-24T00:55:19;13.82;;;9.73;;
29848;SDS011;16728;50.832;5.590;2023-04-24T00:58:22;20.03;;;11.20;;
29848;SDS011;16728;50.832;5.590;2023-04-24T01:01:29;18.27;;;11.48;;
29848;SDS011;16728;50.832;5.590;2023-04-24T01:04:31;20.52;;;11.88;;
29848;SDS011;16728;50.832;5.590;2023-04-24T01:07:34;18.27;;;11.73;;
29848;SDS011;16728;50.832;5.590;2023-04-24T01:10:36;13.35;;;10.77;;
29848;SDS011;16728;50.832;5.590;2023-04-24T01:13:42;17.65;;;10.80;;
29848;SDS011;16728;50.832;5.590;2023-04-24T01:16:44;18.27;;;11.68;;
29848;SDS011;16728;50.832;5.590;2023-04-24T01:19:46;18.92;;;11.18;;
29848;SDS011;16728;50.832;5.590;2023-04-24T01:22:48;20.92;;;12.30;;
29848;SDS011;16728;50.832;5.590;2023-04-24T01:25:50;14.00;;;11.02;;
29848;SDS011;16728;50.832;5.590;2023-04-24T01:28:52;14.52;;;10.25;;
29848;SDS011;16728;50.832;5.590;2023-04-24T01:31:56;16.83;;;10.70;;
29848;SDS011;16728;50.832;5.590;2023-04-24T01:34:59;14.45;;;10.45;;
29848;SDS011;16728;50.832;5.590;2023-04-24T01:38:01;18.35;;;10.80;;
29848;SDS011;16728;50.832;5.590;2023-04-24T01:41:04;16.58;;;10.23;;
29848;SDS011;16728;50.832;5.590;2023-04-24T01:44:07;15.85;;;10.88;;
29848;SDS011;16728;50.832;5.590;2023-04-24T01:47:08;16.23;;;10.65;;
29848;SDS011;16728;50.832;5.590;2023-04-24T01:50:12;21.48;;;11.40;;
29848;SDS011;16728;50.832;5.590;2023-04-24T01:53:14;13.88;;;10.15;;
29848;SDS011;16728;50.832;5.590;2023-04-24T01:56:16;18.38;;;11.48;;
29848;SDS011;16728;50.832;5.590;2023-04-24T01:59:19;20.85;;;11.60;;
29848;SDS011;16728;50.832;5.590;2023-04-24T02:02:29;17.55;;;10.75;;
29848;SDS011;16728;50.832;5.590;2023-04-24T02:05:31;13.83;;;10.80;;
29848;SDS011;16728;50.832;5.590;2023-04-24T02:08:33;16.75;;;10.85;;
29848;SDS011;16728;50.832;5.590;2023-04-24T02:11:35;17.58;;;10.15;;
29848;SDS011;16728;50.832;5.590;2023-04-24T02:14:37;15.77;;;10.20;;
29848;SDS011;16728;50.832;5.590;2023-04-24T02:17:39;16.13;;;10.73;;
29848;SDS011;16728;50.832;5.590;2023-04-24T02:20:41;19.48;;;10.38;;
29848;SDS011;16728;50.832;5.590;2023-04-24T02:23:43;17.95;;;11.70;;
29848;SDS011;16728;50.832;5.590;2023-04-24T02:26:46;12.98;;;9.95;;
29848;SDS011;16728;50.832;5.590;2023-04-24T02:29:47;14.95;;;10.70;;
29848;SDS011;16728;50.832;5.590;2023-04-24T02:32:49;13.10;;;10.23;;
29848;SDS011;16728;50.832;5.590;2023-04-24T02:35:51;18.17;;;11.07;;
29848;SDS011;16728;50.832;5.590;2023-04-24T02:38:58;14.98;;;11.38;;
29848;SDS011;16728;50.832;5.590;2023-04-24T02:42:00;16.20;;;10.95;;
29848;SDS011;16728;50.832;5.590;2023-04-24T02:45:03;16.23;;;10.93;;
29848;SDS011;16728;50.832;5.590;2023-04-24T02:48:06;13.85;;;10.48;;
29848;SDS011;16728;50.832;5.590;2023-04-24T02:51:08;17.98;;;11.20;;
29848;SDS011;16728;50.832;5.590;2023-04-24T02:54:09;18.73;;;10.50;;
29848;SDS011;16728;50.832;5.590;2023-04-24T02:57:12;17.10;;;10.48;;
29848;SDS011;16728;50.832;5.590;2023-04-24T03:00:14;14.35;;;9.90;;
29848;SDS011;16728;50.832;5.590;2023-04-24T03:03:17;13.93;;;9.60;;
29848;SDS011;16728;50.832;5.590;2023-04-24T03:06:19;16.00;;;10.65;;
29848;SDS011;16728;50.832;5.590;2023-04-24T03:09:26;17.05;;;10.43;;
29848;SDS011;16728;50.832;5.590;2023-04-24T03:12:28;15.23;;;10.57;;
29848;SDS011;16728;50.832;5.590;2023-04-24T03:15:30;14.73;;;10.75;;
29848;SDS011;16728;50.832;5.590;2023-04-24T03:18:32;16.25;;;11.35;;
29848;SDS011;16728;50.832;5.590;2023-04-24T03:21:39;18.67;;;11.00;;
29848;SDS011;16728;50.832;5.590;2023-04-24T03:24:43;12.98;;;10.90;;
29848;SDS011;16728;50.832;5.590;2023-04-24T03:27:46;19.60;;;12.40;;
29848;SDS011;16728;50.832;5.590;2023-04-24T03:30:48;15.80;;;11.07;;
29848;SDS011;16728;50.832;5.590;2023-04-24T03:33:50;13.27;;;10.50;;
29848;SDS011;16728;50.832;5.590;2023-04-24T03:36:52;15.63;;;11.57;;
29848;SDS011;16728;50.832;5.590;2023-04-24T03:39:55;16.55;;;12.70;;
29848;SDS011;16728;50.832;5.590;2023-04-24T03:42:56;15.48;;;11.43;;
29848;SDS011;16728;50.832;5.590;2023-04-24T03:45:59;17.55;;;12.23;;
29848;SDS011;16728;50.832;5.590;2023-04-24T03:49:01;15.10;;;11.10;;
29848;SDS011;16728;50.832;5.590;2023-04-24T03:52:04;14.95;;;11.45;;
29848;SDS011;16728;50.832;5.590;2023-04-24T03:55:06;15.18;;;11.13;;
29848;SDS011;16728;50.832;5.590;2023-04-24T03:58:08;14.20;;;11.37;;
29848;SDS011;16728;50.832;5.590;2023-04-24T04:01:10;16.23;;;11.25;;
29848;SDS011;16728;50.832;5.590;2023-04-24T04:04:14;16.98;;;11.63;;
29848;SDS011;16728;50.832;5.590;2023-04-24T04:07:16;12.68;;;11.30;;
29848;SDS011;16728;50.832;5.590;2023-04-24T04:10:23;17.25;;;11.77;;
29848;SDS011;16728;50.832;5.590;2023-04-24T04:13:25;16.67;;;11.23;;
29848;SDS011;16728;50.832;5.590;2023-04-24T04:16:26;14.23;;;11.88;;
29848;SDS011;16728;50.832;5.590;2023-04-24T04:19:28;16.80;;;11.98;;
29848;SDS011;16728;50.832;5.590;2023-04-24T04:22:30;15.88;;;11.45;;
29848;SDS011;16728;50.832;5.590;2023-04-24T04:25:32;13.10;;;10.13;;
29848;SDS011;16728;50.832;5.590;2023-04-24T04:28:34;12.40;;;10.65;;
29848;SDS011;16728;50.832;5.590;2023-04-24T04:31:36;12.60;;;10.15;;
29848;SDS011;16728;50.832;5.590;2023-04-24T04:34:38;13.40;;;10.75;;
29848;SDS011;16728;50.832;5.590;2023-04-24T04:37:40;11.60;;;9.80;;
29848;SDS011;16728;50.832;5.590;2023-04-24T04:40:42;14.18;;;9.57;;
29848;SDS011;16728;50.832;5.590;2023-04-24T04:43:45;14.23;;;10.80;;
29848;SDS011;16728;50.832;5.590;2023-04-24T04:46:49;12.70;;;9.50;;
29848;SDS011;16728;50.832;5.590;2023-04-24T04:49:51;11.73;;;9.68;;
29848;SDS011;16728;50.832;5.590;2023-04-24T04:55:56;11.30;;;8.48;;
29848;SDS011;16728;50.832;5.590;2023-04-24T04:59:00;11.48;;;8.60;;
29848;SDS011;16728;50.832;5.590;2023-04-24T05:02:02;10.25;;;8.30;;
29848;SDS011;16728;50.832;5.590;2023-04-24T05:05:07;12.70;;;8.85;;
29848;SDS011;16728;50.832;5.590;2023-04-24T05:08:10;9.37;;;8.43;;
29848;SDS011;16728;50.832;5.590;2023-04-24T05:11:27;10.32;;;9.02;;
29848;SDS011;16728;50.832;5.590;2023-04-24T05:14:29;10.75;;;8.13;;
29848;SDS011;16728;50.832;5.590;2023-04-24T05:17:31;8.60;;;7.70;;
29848;SDS011;16728;50.832;5.590;2023-04-24T05:20:33;12.27;;;8.32;;
29848;SDS011;16728;50.832;5.590;2023-04-24T05:23:35;10.57;;;7.10;;
29848;SDS011;16728;50.832;5.590;2023-04-24T05:26:36;8.82;;;7.18;;
29848;SDS011;16728;50.832;5.590;2023-04-24T05:29:39;13.18;;;7.10;;
29848;SDS011;16728;50.832;5.590;2023-04-24T05:32:41;7.75;;;6.88;;
29848;SDS011;16728;50.832;5.590;2023-04-24T05:35:44;7.90;;;7.10;;
29848;SDS011;16728;50.832;5.590;2023-04-24T05:38:48;9.57;;;7.30;;
29848;SDS011;16728;50.832;5.590;2023-04-24T05:41:50;8.98;;;6.43;;
29848;SDS011;16728;50.832;5.590;2023-04-24T05:44:52;8.65;;;6.43;;
29848;SDS011;16728;50.832;5.590;2023-04-24T05:47:58;8.75;;;6.45;;
29848;SDS011;16728;50.832;5.590;2023-04-24T05:51:00;14.05;;;7.43;;
29848;SDS011;16728;50.832;5.590;2023-04-24T05:54:02;8.73;;;6.88;;
29848;SDS011;16728;50.832;5.590;2023-04-24T05:57:04;7.43;;;5.78;;
29848;SDS011;16728;50.832;5.590;2023-04-24T06:00:10;7.93;;;6.28;;
29848;SDS011;16728;50.832;5.590;2023-04-24T06:03:13;7.65;;;5.72;;
29848;SDS011;16728;50.832;5.590;2023-04-24T06:06:15;7.53;;;5.53;;
29848;SDS011;16728;50.832;5.590;2023-04-24T06:09:17;8.30;;;5.97;;
29848;SDS011;16728;50.832;5.590;2023-04-24T06:12:19;6.85;;;5.22;;
29848;SDS011;16728;50.832;5.590;2023-04-24T06:15:21;7.03;;;5.03;;
29848;SDS011;16728;50.832;5.590;2023-04-24T06:18:23;7.50;;;4.82;;
29848;SDS011;16728;50.832;5.590;2023-04-24T06:21:25;4.65;;;3.53;;
29848;SDS011;16728;50.832;5.590;2023-04-24T06:24:27;5.72;;;3.92;;
29848;SDS011;16728;50.832;5.590;2023-04-24T06:27:29;4.23;;;3.33;;
29848;SDS011;16728;50.832;5.590;2023-04-24T06:30:31;6.88;;;4.38;;
29848;SDS011;16728;50.832;5.590;2023-04-24T06:33:33;4.93;;;4.20;;
29848;SDS011;16728;50.832;5.590;2023-04-24T06:39:38;6.07;;;5.47;;
29848;SDS011;16728;50.832;5.590;2023-04-24T06:42:42;8.38;;;6.45;;
29848;SDS011;16728;50.832;5.590;2023-04-24T06:45:43;9.18;;;6.95;;
29848;SDS011;16728;50.832;5.590;2023-04-24T06:48:46;6.05;;;4.95;;
29848;SDS011;16728;50.832;5.590;2023-04-24T06:51:48;12.30;;;7.32;;
29848;SDS011;16728;50.832;5.590;2023-04-24T06:54:51;9.18;;;6.85;;
29848;SDS011;16728;50.832;5.590;2023-04-24T06:57:53;8.40;;;7.32;;
29848;SDS011;16728;50.832;5.590;2023-04-24T07:00:55;8.30;;;7.07;;
29848;SDS011;16728;50.832;5.590;2023-04-24T07:03:57;8.07;;;6.43;;
29848;SDS011;16728;50.832;5.590;2023-04-24T07:06:59;8.48;;;6.88;;
29848;SDS011;16728;50.832;5.590;2023-04-24T07:10:02;9.90;;;6.43;;
29848;SDS011;16728;50.832;5.590;2023-04-24T07:13:05;9.10;;;7.03;;
29848;SDS011;16728;50.832;5.590;2023-04-24T07:16:08;11.05;;;7.63;;
29848;SDS011;16728;50.832;5.590;2023-04-24T07:19:12;9.48;;;7.57;;
29848;SDS011;16728;50.832;5.590;2023-04-24T07:25:18;11.95;;;7.72;;
29848;SDS011;16728;50.832;5.590;2023-04-24T07:28:20;12.77;;;8.48;;
29848;SDS011;16728;50.832;5.590;2023-04-24T07:31:22;10.75;;;8.50;;
29848;SDS011;16728;50.832;5.590;2023-04-24T07:34:24;11.43;;;8.57;;
29848;SDS011;16728;50.832;5.590;2023-04-24T07:37:27;14.20;;;9.98;;
29848;SDS011;16728;50.832;5.590;2023-04-24T07:40:30;13.55;;;9.25;;
29848;SDS011;16728;50.832;5.590;2023-04-24T07:43:31;12.63;;;9.50;;
29848;SDS011;16728;50.832;5.590;2023-04-24T07:46:33;11.93;;;9.43;;
29848;SDS011;16728;50.832;5.590;2023-04-24T07:49:35;13.63;;;9.57;;
29848;SDS011;16728;50.832;5.590;2023-04-24T07:52:37;12.15;;;8.23;;
29848;SDS011;16728;50.832;5.590;2023-04-24T07:55:39;12.50;;;9.00;;
29848;SDS011;16728;50.832;5.590;2023-04-24T07:58:41;9.85;;;8.13;;
29848;SDS011;16728;50.832;5.590;2023-04-24T08:01:44;11.77;;;8.93;;
29848;SDS011;16728;50.832;5.590;2023-04-24T08:04:53;11.73;;;9.43;;
29848;SDS011;16728;50.832;5.590;2023-04-24T08:07:56;12.27;;;8.73;;
29848;SDS011;16728;50.832;5.590;2023-04-24T08:10:57;13.20;;;9.98;;
29848;SDS011;16728;50.832;5.590;2023-04-24T08:14:00;14.88;;;10.23;;
29848;SDS011;16728;50.832;5.590;2023-04-24T08:17:02;14.32;;;10.70;;
29848;SDS011;16728;50.832;5.590;2023-04-24T08:20:06;18.85;;;11.43;;
29848;SDS011;16728;50.832;5.590;2023-04-24T08:23:14;17.38;;;11.10;;
29848;SDS011;16728;50.832;5.590;2023-04-24T08:29:19;19.30;;;11.77;;
29848;SDS011;16728;50.832;5.590;2023-04-24T08:32:26;18.95;;;12.07;;
29848;SDS011;16728;50.832;5.590;2023-04-24T08:35:31;15.68;;;10.43;;
29848;SDS011;16728;50.832;5.590;2023-04-24T08:38:35;16.55;;;11.27;;
29848;SDS011;16728;50.832;5.590;2023-04-24T08:41:37;13.80;;;9.88;;
29848;SDS011;16728;50.832;5.590;2023-04-24T08:44:40;20.10;;;11.30;;
29848;SDS011;16728;50.832;5.590;2023-04-24T08:47:42;17.88;;;10.85;;
29848;SDS011;16728;50.832;5.590;2023-04-24T08:50:45;17.13;;;10.07;;
29848;SDS011;16728;50.832;5.590;2023-04-24T08:53:49;16.38;;;10.13;;
29848;SDS011;16728;50.832;5.590;2023-04-24T08:57:01;16.10;;;9.48;;
29848;SDS011;16728;50.832;5.590;2023-04-24T09:00:04;14.85;;;9.30;;
29848;SDS011;16728;50.832;5.590;2023-04-24T09:03:15;14.60;;;9.07;;
29848;SDS011;16728;50.832;5.590;2023-04-24T09:06:18;13.65;;;8.20;;
29848;SDS011;16728;50.832;5.590;2023-04-24T09:09:24;12.45;;;7.28;;
29848;SDS011;16728;50.832;5.590;2023-04-24T09:12:26;11.95;;;7.95;;
29848;SDS011;16728;50.832;5.590;2023-04-24T09:15:35;14.13;;;7.57;;
29848;SDS011;16728;50.832;5.590;2023-04-24T09:18:37;11.15;;;6.57;;
29848;SDS011;16728;50.832;5.590;2023-04-24T09:21:39;14.20;;;6.53;;
29848;SDS011;16728;50.832;5.590;2023-04-24T09:24:45;12.07;;;6.18;;
29848;SDS011;16728;50.832;5.590;2023-04-24T09:27:47;12.02;;;5.90;;
29848;SDS011;16728;50.832;5.590;2023-04-24T09:30:57;13.73;;;5.05;;
29848;SDS011;16728;50.832;5.590;2023-04-24T09:34:05;10.07;;;4.97;;
29848;SDS011;16728;50.832;5.590;2023-04-24T09:37:08;10.65;;;5.25;;
29848;SDS011;16728;50.832;5.590;2023-04-24T09:40:15;12.55;;;5.50;;
29848;SDS011;16728;50.832;5.590;2023-04-24T09:43:22;11.07;;;5.95;;
29848;SDS011;16728;50.832;5.590;2023-04-24T09:46:29;13.73;;;6.35;;
29848;SDS011;16728;50.832;5.590;2023-04-24T09:49:34;12.88;;;6.75;;
29848;SDS011;16728;50.832;5.590;2023-04-24T09:52:44;13.52;;;7.13;;
29848;SDS011;16728;50.832;5.590;2023-04-24T09:55:48;16.35;;;7.47;;
29848;SDS011;16728;50.832;5.590;2023-04-24T09:58:54;16.63;;;6.75;;
29848;SDS011;16728;50.832;5.590;2023-04-24T10:02:15;13.70;;;7.25;;
29848;SDS011;16728;50.832;5.590;2023-04-24T10:05:24;15.85;;;7.00;;
29848;SDS011;16728;50.832;5.590;2023-04-24T10:08:33;11.82;;;7.03;;
29848;SDS011;16728;50.832;5.590;2023-04-24T10:11:37;9.93;;;6.43;;
29848;SDS011;16728;50.832;5.590;2023-04-24T10:14:43;11.32;;;7.22;;
29848;SDS011;16728;50.832;5.590;2023-04-24T10:17:53;12.35;;;7.22;;
29848;SDS011;16728;50.832;5.590;2023-04-24T10:20:55;12.05;;;7.22;;
29848;SDS011;16728;50.832;5.590;2023-04-24T10:23:59;15.95;;;6.43;;
29848;SDS011;16728;50.832;5.590;2023-04-24T10:27:04;12.43;;;6.38;;
29848;SDS011;16728;50.832;5.590;2023-04-24T10:30:07;13.10;;;6.63;;
29848;SDS011;16728;50.832;5.590;2023-04-24T10:33:09;9.33;;;6.13;;
29848;SDS011;16728;50.832;5.590;2023-04-24T10:36:13;11.32;;;5.95;;
29848;SDS011;16728;50.832;5.590;2023-04-24T10:39:17;11.15;;;6.63;;
29848;SDS011;16728;50.832;5.590;2023-04-24T10:42:28;11.65;;;6.30;;
29848;SDS011;16728;50.832;5.590;2023-04-24T10:45:30;13.52;;;6.97;;
29848;SDS011;16728;50.832;5.590;2023-04-24T10:48:32;14.45;;;6.88;;
29848;SDS011;16728;50.832;5.590;2023-04-24T10:54:50;12.02;;;5.75;;
29848;SDS011;16728;50.832;5.590;2023-04-24T10:58:01;9.35;;;5.70;;
29848;SDS011;16728;50.832;5.590;2023-04-24T11:01:07;10.43;;;6.40;;
29848;SDS011;16728;50.832;5.590;2023-04-24T11:04:09;12.25;;;7.03;;
29848;SDS011;16728;50.832;5.590;2023-04-24T11:07:12;15.20;;;6.55;;
29848;SDS011;16728;50.832;5.590;2023-04-24T11:10:26;13.30;;;6.15;;
29848;SDS011;16728;50.832;5.590;2023-04-24T11:14:00;9.65;;;6.20;;
29848;SDS011;16728;50.832;5.590;2023-04-24T11:16:56;11.52;;;6.95;;
29848;SDS011;16728;50.832;5.590;2023-04-24T11:20:01;14.70;;;6.55;;
29848;SDS011;16728;50.832;5.590;2023-04-24T11:23:27;12.18;;;6.15;;
29848;SDS011;16728;50.832;5.590;2023-04-24T11:26:38;12.52;;;6.78;;
29848;SDS011;16728;50.832;5.590;2023-04-24T11:29:44;9.77;;;5.65;;
29848;SDS011;16728;50.832;5.590;2023-04-24T11:33:02;10.00;;;5.57;;
29848;SDS011;16728;50.832;5.590;2023-04-24T11:36:06;8.77;;;5.05;;
29848;SDS011;16728;50.832;5.590;2023-04-24T11:39:10;10.60;;;4.88;;
29848;SDS011;16728;50.832;5.590;2023-04-24T11:42:16;9.27;;;4.43;;
29848;SDS011;16728;50.832;5.590;2023-04-24T11:45:23;8.13;;;4.70;;
29848;SDS011;16728;50.832;5.590;2023-04-24T11:48:27;8.63;;;4.68;;
29848;SDS011;16728;50.832;5.590;2023-04-24T11:51:30;7.38;;;4.25;;
29848;SDS011;16728;50.832;5.590;2023-04-24T11:54:51;9.80;;;4.75;;
29848;SDS011;16728;50.832;5.590;2023-04-24T11:57:56;10.90;;;4.97;;
29848;SDS011;16728;50.832;5.590;2023-04-24T12:00:59;6.40;;;4.35;;
29848;SDS011;16728;50.832;5.590;2023-04-24T12:04:02;10.85;;;4.82;;
29848;SDS011;16728;50.832;5.590;2023-04-24T12:07:04;8.73;;;4.60;;
29848;SDS011;16728;50.832;5.590;2023-04-24T12:10:06;9.55;;;5.55;;
29848;SDS011;16728;50.832;5.590;2023-04-24T12:13:09;13.93;;;5.25;;
29848;SDS011;16728;50.832;5.590;2023-04-24T12:16:13;11.65;;;5.07;;
29848;SDS011;16728;50.832;5.590;2023-04-24T12:19:20;7.97;;;5.00;;
29848;SDS011;16728;50.832;5.590;2023-04-24T12:22:24;9.23;;;5.43;;
29848;SDS011;16728;50.832;5.590;2023-04-24T12:25:30;8.30;;;4.47;;
29848;SDS011;16728;50.832;5.590;2023-04-24T12:28:37;10.98;;;4.90;;
29848;SDS011;16728;50.832;5.590;2023-04-24T12:31:40;7.93;;;5.15;;
29848;SDS011;16728;50.832;5.590;2023-04-24T12:34:43;9.23;;;4.23;;
29848;SDS011;16728;50.832;5.590;2023-04-24T12:37:45;9.90;;;4.82;;
29848;SDS011;16728;50.832;5.590;2023-04-24T12:40:48;7.50;;;4.28;;
29848;SDS011;16728;50.832;5.590;2023-04-24T12:44:02;9.23;;;4.85;;
29848;SDS011;16728;50.832;5.590;2023-04-24T12:47:09;7.78;;;4.97;;
29848;SDS011;16728;50.832;5.590;2023-04-24T12:50:13;8.60;;;4.90;;
29848;SDS011;16728;50.832;5.590;2023-04-24T12:53:17;8.38;;;4.78;;
29848;SDS011;16728;50.832;5.590;2023-04-24T12:56:19;10.60;;;4.85;;
29848;SDS011;16728;50.832;5.590;2023-04-24T12:59:26;8.35;;;5.35;;
29848;SDS011;16728;50.832;5.590;2023-04-24T13:02:29;8.82;;;5.00;;
29848;SDS011;16728;50.832;5.590;2023-04-24T13:05:32;11.25;;;6.22;;
29848;SDS011;16728;50.832;5.590;2023-04-24T13:08:34;9.35;;;4.90;;
29848;SDS011;16728;50.832;5.590;2023-04-24T13:11:36;7.90;;;4.60;;
29848;SDS011;16728;50.832;5.590;2023-04-24T13:14:38;10.10;;;5.30;;
29848;SDS011;16728;50.832;5.590;2023-04-24T13:17:40;8.93;;;5.30;;
29848;SDS011;16728;50.832;5.590;2023-04-24T13:20:42;9.07;;;5.97;;
29848;SDS011;16728;50.832;5.590;2023-04-24T13:23:45;9.35;;;5.30;;
29848;SDS011;16728;50.832;5.590;2023-04-24T13:26:47;8.18;;;5.28;;
29848;SDS011;16728;50.832;5.590;2023-04-24T13:29:50;8.48;;;4.80;;
29848;SDS011;16728;50.832;5.590;2023-04-24T13:32:52;8.13;;;5.15;;
29848;SDS011;16728;50.832;5.590;2023-04-24T13:35:59;9.07;;;4.55;;
29848;SDS011;16728;50.832;5.590;2023-04-24T13:39:01;14.73;;;5.50;;
29848;SDS011;16728;50.832;5.590;2023-04-24T13:42:05;7.97;;;5.25;;
29848;SDS011;16728;50.832;5.590;2023-04-24T13:45:07;9.07;;;5.60;;
29848;SDS011;16728;50.832;5.590;2023-04-24T13:48:12;6.82;;;4.82;;
29848;SDS011;16728;50.832;5.590;2023-04-24T13:51:16;10.35;;;5.63;;
29848;SDS011;16728;50.832;5.590;2023-04-24T13:54:18;9.60;;;5.28;;
29848;SDS011;16728;50.832;5.590;2023-04-24T13:57:20;8.88;;;5.30;;
29848;SDS011;16728;50.832;5.590;2023-04-24T14:00:23;7.33;;;5.07;;
29848;SDS011;16728;50.832;5.590;2023-04-24T14:03:25;7.03;;;4.80;;
29848;SDS011;16728;50.832;5.590;2023-04-24T14:06:27;12.67;;;5.30;;
29848;SDS011;16728;50.832;5.590;2023-04-24T14:09:29;8.70;;;4.88;;
29848;SDS011;16728;50.832;5.590;2023-04-24T14:12:33;5.82;;;4.68;;
29848;SDS011;16728;50.832;5.590;2023-04-24T14:15:35;8.15;;;4.68;;
29848;SDS011;16728;50.832;5.590;2023-04-24T14:18:37;11.05;;;4.93;;
29848;SDS011;16728;50.832;5.590;2023-04-24T14:21:39;7.20;;;4.43;;
29848;SDS011;16728;50.832;5.590;2023-04-24T14:24:47;7.78;;;5.25;;
29848;SDS011;16728;50.832;5.590;2023-04-24T14:27:49;6.32;;;4.78;;
29848;SDS011;16728;50.832;5.590;2023-04-24T14:30:51;5.22;;;4.45;;
29848;SDS011;16728;50.832;5.590;2023-04-24T14:33:54;8.68;;;4.90;;
29848;SDS011;16728;50.832;5.590;2023-04-24T14:36:56;8.13;;;4.72;;
29848;SDS011;16728;50.832;5.590;2023-04-24T14:43:21;6.50;;;4.15;;
29848;SDS011;16728;50.832;5.590;2023-04-24T14:46:23;6.88;;;4.68;;
29848;SDS011;16728;50.832;5.590;2023-04-24T14:49:26;6.82;;;4.32;;
29848;SDS011;16728;50.832;5.590;2023-04-24T14:52:27;6.22;;;4.28;;
29848;SDS011;16728;50.832;5.590;2023-04-24T14:55:30;14.47;;;8.17;;
29848;SDS011;16728;50.832;5.590;2023-04-24T14:58:33;10.88;;;4.82;;
29848;SDS011;16728;50.832;5.590;2023-04-24T15:01:38;12.68;;;4.68;;
29848;SDS011;16728;50.832;5.590;2023-04-24T15:04:41;9.30;;;4.78;;
29848;SDS011;16728;50.832;5.590;2023-04-24T15:07:43;6.47;;;3.95;;
29848;SDS011;16728;50.832;5.590;2023-04-24T15:10:46;9.77;;;4.45;;
29848;SDS011;16728;50.832;5.590;2023-04-24T15:13:50;6.75;;;4.05;;
29848;SDS011;16728;50.832;5.590;2023-04-24T15:16:52;6.57;;;4.20;;
29848;SDS011;16728;50.832;5.590;2023-04-24T15:20:00;6.20;;;3.70;;
29848;SDS011;16728;50.832;5.590;2023-04-24T15:23:02;7.97;;;4.00;;
29848;SDS011;16728;50.832;5.590;2023-04-24T15:29:08;8.52;;;4.65;;
29848;SDS011;16728;50.832;5.590;2023-04-24T15:32:10;9.98;;;4.53;;
29848;SDS011;16728;50.832;5.590;2023-04-24T15:35:12;7.03;;;4.35;;
29848;SDS011;16728;50.832;5.590;2023-04-24T15:38:15;5.25;;;3.30;;
29848;SDS011;16728;50.832;5.590;2023-04-24T15:41:17;9.63;;;4.47;;
29848;SDS011;16728;50.832;5.590;2023-04-24T15:44:20;6.97;;;4.55;;
29848;SDS011;16728;50.832;5.590;2023-04-24T15:47:23;8.40;;;4.53;;
29848;SDS011;16728;50.832;5.590;2023-04-24T15:50:28;8.93;;;4.40;;
29848;SDS011;16728;50.832;5.590;2023-04-24T15:53:30;6.35;;;4.55;;
29848;SDS011;16728;50.832;5.590;2023-04-24T15:56:32;7.93;;;3.95;;
29848;SDS011;16728;50.832;5.590;2023-04-24T15:59:34;5.53;;;4.20;;
29848;SDS011;16728;50.832;5.590;2023-04-24T16:05:42;9.27;;;3.90;;
29848;SDS011;16728;50.832;5.590;2023-04-24T16:08:49;5.65;;;4.07;;
29848;SDS011;16728;50.832;5.590;2023-04-24T16:11:51;7.38;;;3.72;;
29848;SDS011;16728;50.832;5.590;2023-04-24T16:14:54;4.97;;;3.65;;
29848;SDS011;16728;50.832;5.590;2023-04-24T16:17:56;5.15;;;3.22;;
29848;SDS011;16728;50.832;5.590;2023-04-24T16:21:03;6.90;;;3.53;;
29848;SDS011;16728;50.832;5.590;2023-04-24T16:24:05;9.23;;;3.30;;
29848;SDS011;16728;50.832;5.590;2023-04-24T16:27:07;7.10;;;3.30;;
29848;SDS011;16728;50.832;5.590;2023-04-24T16:30:09;4.35;;;3.28;;
29848;SDS011;16728;50.832;5.590;2023-04-24T16:33:11;5.22;;;3.00;;
29848;SDS011;16728;50.832;5.590;2023-04-24T16:36:13;4.93;;;3.08;;
29848;SDS011;16728;50.832;5.590;2023-04-24T16:39:16;5.13;;;3.15;;
29848;SDS011;16728;50.832;5.590;2023-04-24T16:42:18;5.40;;;3.63;;
29848;SDS011;16728;50.832;5.590;2023-04-24T16:45:20;5.03;;;3.13;;
29848;SDS011;16728;50.832;5.590;2023-04-24T16:48:22;5.07;;;3.05;;
29848;SDS011;16728;50.832;5.590;2023-04-24T16:54:28;6.63;;;3.10;;
29848;SDS011;16728;50.832;5.590;2023-04-24T16:57:30;5.47;;;3.85;;
29848;SDS011;16728;50.832;5.590;2023-04-24T17:00:32;5.25;;;3.42;;
29848;SDS011;16728;50.832;5.590;2023-04-24T17:03:38;7.25;;;2.92;;
29848;SDS011;16728;50.832;5.590;2023-04-24T17:06:42;5.18;;;3.13;;
29848;SDS011;16728;50.832;5.590;2023-04-24T17:09:43;6.45;;;3.30;;
29848;SDS011;16728;50.832;5.590;2023-04-24T17:12:46;4.28;;;2.70;;
29848;SDS011;16728;50.832;5.590;2023-04-24T17:15:52;3.35;;;2.40;;
29848;SDS011;16728;50.832;5.590;2023-04-24T17:18:54;4.55;;;2.55;;
29848;SDS011;16728;50.832;5.590;2023-04-24T17:21:56;3.38;;;2.13;;
29848;SDS011;16728;50.832;5.590;2023-04-24T17:24:58;4.50;;;2.45;;
29848;SDS011;16728;50.832;5.590;2023-04-24T17:28:01;5.97;;;2.58;;
29848;SDS011;16728;50.832;5.590;2023-04-24T17:31:03;5.35;;;2.78;;
29848;SDS011;16728;50.832;5.590;2023-04-24T17:34:05;8.95;;;2.33;;
29848;SDS011;16728;50.832;5.590;2023-04-24T17:37:08;3.53;;;1.92;;
29848;SDS011;16728;50.832;5.590;2023-04-24T17:40:11;6.05;;;2.25;;
29848;SDS011;16728;50.832;5.590;2023-04-24T17:43:13;5.45;;;2.20;;
29848;SDS011;16728;50.832;5.590;2023-04-24T17:46:19;4.85;;;2.40;;
29848;SDS011;16728;50.832;5.590;2023-04-24T17:49:21;6.35;;;3.97;;
29848;SDS011;16728;50.832;5.590;2023-04-24T17:55:26;5.88;;;2.30;;
29848;SDS011;16728;50.832;5.590;2023-04-24T17:58:28;4.15;;;2.13;;
29848;SDS011;16728;50.832;5.590;2023-04-24T18:01:31;2.20;;;1.95;;
29848;SDS011;16728;50.832;5.590;2023-04-24T18:04:35;6.50;;;2.70;;
29848;SDS011;16728;50.832;5.590;2023-04-24T18:07:39;5.30;;;2.55;;
29848;SDS011;16728;50.832;5.590;2023-04-24T18:10:42;6.28;;;3.00;;
29848;SDS011;16728;50.832;5.590;2023-04-24T18:13:45;4.47;;;2.67;;
29848;SDS011;16728;50.832;5.590;2023-04-24T18:16:47;6.93;;;3.45;;
29848;SDS011;16728;50.832;5.590;2023-04-24T18:19:49;4.28;;;2.78;;
29848;SDS011;16728;50.832;5.590;2023-04-24T18:22:51;4.93;;;3.45;;
29848;SDS011;16728;50.832;5.590;2023-04-24T18:25:53;7.10;;;4.07;;
29848;SDS011;16728;50.832;5.590;2023-04-24T18:28:56;5.50;;;3.60;;
29848;SDS011;16728;50.832;5.590;2023-04-24T18:31:58;6.20;;;3.33;;
29848;SDS011;16728;50.832;5.590;2023-04-24T18:35:04;3.42;;;3.10;;
29848;SDS011;16728;50.832;5.590;2023-04-24T18:38:06;7.10;;;3.87;;
29848;SDS011;16728;50.832;5.590;2023-04-24T18:41:08;7.43;;;3.30;;
29848;SDS011;16728;50.832;5.590;2023-04-24T18:44:10;7.97;;;4.43;;